This is the latest recevied weather packets stored in our database for station/object KO4RMV-3. If no packets are shown the sender has not sent any weather packets the latest 10 day(s).
| Time | Temp. | Humidity | Pressure | Rain* | Wind** | Luminosity | Snow |
|---|---|---|---|---|---|---|---|
| 1778096706 | 20° C | 81% | - | 0 mm | - | - | - |
| 1778095806 | 20° C | 82% | - | 0 mm | - | - | - |
| 1778094906 | 19.44° C | 83% | - | 0 mm | - | - | - |
| 1778094006 | 18.89° C | 85% | - | 0 mm | - | - | - |
| 1778093106 | 18.89° C | 84% | - | 0 mm | - | - | - |
| 1778092206 | 19.44° C | 82% | - | 0 mm | - | - | - |
| 1778091306 | 19.44° C | 82% | - | 0 mm | - | - | - |
| 1778090406 | 18.89° C | 84% | - | 0 mm | - | - | - |
| 1778089505 | 18.89° C | 84% | - | 0 mm | - | - | - |
| 1778088605 | 18.33° C | 86% | - | 0 mm | - | - | - |
| 1778087705 | 18.33° C | 86% | - | 0 mm | - | - | - |
| 1778086805 | 18.33° C | 86% | - | 0 mm | - | - | - |
| 1778085905 | 18.33° C | 88% | - | 0 mm | - | - | - |
| 1778085005 | 17.78° C | 89% | - | 0 mm | - | - | - |
| 1778084105 | 17.22° C | 89% | - | 1.02 mm | - | - | - |
| 1778083205 | 17.22° C | 89% | - | 0 mm | - | - | - |
| 1778082305 | 17.22° C | 89% | - | 0 mm | - | - | - |
| 1778081406 | 17.22° C | 89% | - | 0 mm | - | - | - |
| 1778080506 | 16.67° C | 89% | - | 0 mm | - | - | - |
| 1778079606 | 16.67° C | 90% | - | 3.81 mm | - | - | - |
| 1778078706 | 16.67° C | 87% | - | 6.35 mm | - | - | - |
| 1778077806 | 17.22° C | 84% | - | 1.27 mm | - | - | - |
| 1778076906 | 17.78° C | 81% | - | 1.02 mm | - | - | - |
| 1778076006 | 18.89° C | 76% | - | 0 mm | - | - | - |
| 1778075106 | 19.44° C | 70% | - | 0 mm | - | - | - |
* Rain latest hour (hover to see other rain measurements)
** Current wind speed in m/s (hover to see current wind gust speed)